Time;durP1;ratioP1;P1;durP2;ratioP2;P2;SDS_P1;SDS_P2;PMS_P1;PMS_P2;Temp;Humidity;BMP_temperature;BMP_pressure;BME280_temperature;BME280_humidity;BME280_pressure;Samples;Min_cycle;Max_cycle;Signal;HPM_P1;HPM_P2
2023/08/29 00:00:38;;;;;;;6.10;4.68;;;;;;;12.41;100.00;101174.97;5028380;28;20049;-70
2023/08/29 00:03:04;;;;;;;5.40;4.68;;;;;;;12.41;100.00;101166.78;5030320;28;20373;-70
2023/08/29 00:05:30;;;;;;;6.38;4.90;;;;;;;12.40;100.00;101175.97;5012235;28;20034;-69
2023/08/29 00:07:55;;;;;;;22.40;6.28;;;;;;;12.37;100.00;101170.72;5011029;28;20753;-70
2023/08/29 00:10:20;;;;;;;6.22;4.53;;;;;;;12.35;100.00;101166.34;5011818;28;20073;-69
2023/08/29 00:12:46;;;;;;;6.50;5.00;;;;;;;12.32;100.00;101162.03;5011136;28;20034;-70
2023/08/29 00:15:11;;;;;;;5.90;4.28;;;;;;;12.31;100.00;101167.56;5011959;28;20042;-70
2023/08/29 00:17:37;;;;;;;9.93;5.38;;;;;;;12.33;100.00;101168.34;5028738;28;20069;-70
2023/08/29 00:20:02;;;;;;;6.15;4.45;;;;;;;12.28;100.00;101156.91;5014516;28;20394;-69
2023/08/29 00:22:28;;;;;;;6.05;4.65;;;;;;;12.28;100.00;101149.59;5011091;28;20075;-70
2023/08/29 00:24:54;;;;;;;8.90;5.60;;;;;;;12.28;100.00;101152.31;5010928;28;20152;-70
2023/08/29 00:27:20;;;;;;;7.60;5.35;;;;;;;12.25;100.00;101138.91;5009931;28;20433;-70
2023/08/29 00:29:46;;;;;;;7.32;5.43;;;;;;;12.20;100.00;101138.38;5010598;28;20133;-69
2023/08/29 00:32:11;;;;;;;9.90;5.22;;;;;;;12.21;100.00;101138.25;5008558;28;20109;-70
2023/08/29 00:34:37;;;;;;;7.28;5.20;;;;;;;12.19;100.00;101140.22;5008441;28;20030;-70
2023/08/29 00:37:03;;;;;;;8.18;4.97;;;;;;;12.17;100.00;101136.75;5010496;28;20037;-70
2023/08/29 00:39:28;;;;;;;6.95;4.28;;;;;;;12.17;100.00;101147.66;5018890;28;20025;-70
2023/08/29 00:41:54;;;;;;;5.85;4.88;;;;;;;12.15;100.00;101141.44;5028018;28;20426;-70
2023/08/29 00:44:21;;;;;;;7.22;4.80;;;;;;;12.19;100.00;101142.09;5011245;28;20489;-70
2023/08/29 00:46:49;;;;;;;9.40;4.75;;;;;;;12.18;100.00;101132.19;5012691;28;20433;-70
2023/08/29 00:49:18;;;;;;;8.32;5.07;;;;;;;12.16;100.00;101134.13;5009187;28;20042;-70
2023/08/29 00:51:44;;;;;;;7.03;4.07;;;;;;;12.11;100.00;101134.47;5008557;28;20032;-71
2023/08/29 00:54:10;;;;;;;5.45;4.50;;;;;;;12.09;100.00;101135.59;5008498;28;20473;-69
2023/08/29 00:56:35;;;;;;;7.68;5.15;;;;;;;12.08;100.00;101145.63;5010201;28;20539;-70
2023/08/29 00:59:02;;;;;;;6.53;5.00;;;;;;;12.08;100.00;101142.03;5009828;28;20045;-70
2023/08/29 01:01:30;;;;;;;8.05;5.07;;;;;;;12.06;100.00;101138.53;5019901;28;20382;-70
2023/08/29 01:03:56;;;;;;;7.40;4.72;;;;;;;12.02;100.00;101135.16;5023325;28;20112;-70
2023/08/29 01:06:22;;;;;;;8.25;5.05;;;;;;;12.01;100.00;101136.13;5009067;28;20157;-71
2023/08/29 01:08:47;;;;;;;7.40;5.05;;;;;;;11.97;100.00;101129.16;5010586;28;20046;-70
2023/08/29 01:11:20;;;;;;;9.35;5.80;;;;;;;11.96;100.00;101133.75;5008352;28;20076;-70
2023/08/29 01:14:08;;;;;;;9.63;5.40;;;;;;;11.95;100.00;101132.03;5009607;28;20485;-70
2023/08/29 01:16:40;;;;;;;8.35;5.18;;;;;;;11.92;100.00;101131.38;5009415;28;20057;-70
2023/08/29 01:19:14;;;;;;;10.98;6.05;;;;;;;11.90;100.00;101133.34;5012968;28;20477;-70
2023/08/29 01:21:45;;;;;;;8.07;5.40;;;;;;;11.87;100.00;101139.88;5028141;28;20041;-70
2023/08/29 01:24:23;;;;;;;7.32;4.28;;;;;;;11.85;100.00;101139.13;5028248;28;20405;-70
2023/08/29 01:26:49;;;;;;;5.40;4.70;;;;;;;11.83;100.00;101138.34;5029938;28;20033;-70
2023/08/29 01:29:15;;;;;;;5.45;4.65;;;;;;;11.80;100.00;101140.41;5009599;28;20049;-70
2023/08/29 01:31:41;;;;;;;6.75;4.88;;;;;;;11.77;100.00;101141.50;5009054;28;20032;-70
2023/08/29 01:34:08;;;;;;;6.55;4.70;;;;;;;11.75;100.00;101148.94;5014037;28;20404;-70
2023/08/29 01:36:38;;;;;;;9.55;5.85;;;;;;;11.75;100.00;101144.34;5027920;28;20124;-70
2023/08/29 01:39:04;;;;;;;6.05;4.28;;;;;;;11.72;100.00;101140.97;5022629;28;20040;-70
2023/08/29 01:41:30;;;;;;;7.93;4.72;;;;;;;11.68;100.00;101140.31;4991838;28;20501;-70
2023/08/29 01:43:56;;;;;;;7.95;4.47;;;;;;;11.63;100.00;101137.06;5007824;28;20034;-70
2023/08/29 01:46:21;;;;;;;6.03;4.53;;;;;;;11.58;100.00;101152.88;5009095;28;20031;-70
2023/08/29 01:48:47;;;;;;;8.07;5.20;;;;;;;11.54;100.00;101145.91;5007052;28;20045;-70
2023/08/29 01:51:12;;;;;;;6.05;4.68;;;;;;;11.54;100.00;101145.91;5007582;28;20095;-70
2023/08/29 01:53:38;;;;;;;9.27;5.15;;;;;;;11.54;100.00;101145.03;5008940;28;20049;-70
2023/08/29 01:56:06;;;;;;;12.00;5.05;;;;;;;11.53;100.00;101143.28;5007658;28;20161;-71
2023/08/29 01:58:33;;;;;;;10.77;4.72;;;;;;;11.51;100.00;101151.56;5006838;28;20037;-70
2023/08/29 02:00:59;;;;;;;11.68;4.57;;;;;;;11.51;100.00;101148.81;5006541;28;20433;-71
2023/08/29 02:03:26;;;;;;;7.30;4.45;;;;;;;11.52;100.00;101160.59;5022948;28;20493;-70
2023/08/29 02:05:51;;;;;;;6.75;5.53;;;;;;;11.50;100.00;101158.00;5007646;28;20033;-71
2023/08/29 02:08:16;;;;;;;8.25;4.82;;;;;;;11.46;100.00;101151.88;5007654;28;20045;-70
2023/08/29 02:10:42;;;;;;;8.68;5.32;;;;;;;11.46;100.00;101153.72;5007419;28;20048;-70
2023/08/29 02:13:09;;;;;;;6.95;4.60;;;;;;;11.42;100.00;101155.84;5006851;28;20034;-70
2023/08/29 02:15:34;;;;;;;7.60;5.07;;;;;;;11.40;100.00;101152.31;5022967;28;20081;-70
2023/08/29 02:18:00;;;;;;;8.93;5.20;;;;;;;11.35;100.00;101151.78;5006266;28;20056;-70
2023/08/29 02:20:25;;;;;;;6.18;4.47;;;;;;;11.36;100.00;101152.66;5006716;28;20018;-70
2023/08/29 02:22:50;;;;;;;5.18;4.20;;;;;;;11.34;100.00;101155.50;5008057;28;20034;-71
2023/08/29 02:25:17;;;;;;;6.13;3.97;;;;;;;11.35;100.00;101172.72;5007637;28;20103;-71
2023/08/29 02:27:43;;;;;;;11.80;5.05;;;;;;;11.32;100.00;101171.06;5010223;28;20041;-70
2023/08/29 02:30:10;;;;;;;5.85;4.25;;;;;;;11.28;100.00;101165.94;5020672;28;20041;-71
2023/08/29 02:32:37;;;;;;;4.57;3.85;;;;;;;11.23;100.00;101167.13;5007471;28;20447;-71
2023/08/29 02:35:03;;;;;;;5.55;4.13;;;;;;;11.24;100.00;101178.91;4990441;28;20033;-71
2023/08/29 02:37:29;;;;;;;8.27;4.75;;;;;;;11.21;100.00;101177.28;5023151;28;20517;-71
2023/08/29 02:39:54;;;;;;;9.43;4.47;;;;;;;11.20;100.00;101186.41;5006992;28;20121;-70
2023/08/29 02:42:19;;;;;;;6.55;4.28;;;;;;;11.19;100.00;101191.94;5008583;28;20068;-71
2023/08/29 02:44:45;;;;;;;8.52;4.50;;;;;;;11.14;100.00;101189.56;5006684;28;20026;-71
2023/08/29 02:47:10;;;;;;;6.18;3.67;;;;;;;11.12;100.00;101193.38;5006181;28;20034;-71
2023/08/29 02:49:36;;;;;;;13.75;4.63;;;;;;;11.09;100.00;101194.44;5005933;28;20092;-71
2023/08/29 02:52:02;;;;;;;7.05;4.30;;;;;;;11.08;100.00;101197.28;5008182;28;20041;-70
2023/08/29 02:54:27;;;;;;;4.70;3.80;;;;;;;11.06;100.00;101191.09;5006605;28;20179;-71
2023/08/29 02:56:52;;;;;;;5.13;4.25;;;;;;;11.04;100.00;101193.03;5007977;28;20055;-71
2023/08/29 02:59:18;;;;;;;5.63;4.03;;;;;;;10.98;100.00;101187.03;5008364;28;20058;-70
2023/08/29 03:01:43;;;;;;;9.13;4.15;;;;;;;10.97;100.00;101179.84;5006376;28;20048;-71
2023/08/29 03:04:08;;;;;;;5.53;3.72;;;;;;;10.94;100.00;101190.06;5027756;28;20037;-71
2023/08/29 03:06:35;;;;;;;9.20;4.18;;;;;;;10.92;100.00;101190.19;5026492;28;20029;-71
2023/08/29 03:09:02;;;;;;;11.55;4.30;;;;;;;10.92;100.00;101192.03;5025963;28;20026;-71
2023/08/29 03:11:28;;;;;;;7.97;4.55;;;;;;;10.88;100.00;101194.09;5027151;28;20408;-71
2023/08/29 03:13:53;;;;;;;8.15;4.65;;;;;;;10.88;100.00;101187.78;5006857;28;20052;-71
2023/08/29 03:16:19;;;;;;;5.78;4.20;;;;;;;10.87;100.00;101196.91;5016780;28;20048;-71
2023/08/29 03:18:44;;;;;;;6.07;3.80;;;;;;;10.85;100.00;101193.41;5021505;28;20073;-71
2023/08/29 03:21:10;;;;;;;8.05;5.13;;;;;;;10.84;100.00;101194.41;5023004;28;20018;-71
2023/08/29 03:23:36;;;;;;;10.88;4.95;;;;;;;10.80;100.00;101191.00;5016979;28;20488;-71
2023/08/29 03:26:06;;;;;;;6.57;4.40;;;;;;;10.77;100.00;101190.34;5026336;28;20041;-71
2023/08/29 03:28:36;;;;;;;7.97;4.45;;;;;;;10.77;100.00;101188.50;5022744;28;20048;-71
2023/08/29 03:31:16;;;;;;;10.75;4.13;;;;;;;10.78;100.00;101192.09;5010925;28;20030;-71
2023/08/29 03:33:43;;;;;;;7.28;4.32;;;;;;;10.75;100.00;101176.84;5005759;28;20416;-71
2023/08/29 03:36:09;;;;;;;5.85;4.25;;;;;;;10.74;100.00;101180.53;5006199;28;20117;-71
2023/08/29 03:38:38;;;;;;;6.10;3.72;;;;;;;10.73;100.00;101174.22;5007830;28;20584;-71
2023/08/29 03:41:05;;;;;;;6.28;3.72;;;;;;;10.71;100.00;101170.72;5015092;28;20482;-71
2023/08/29 03:43:32;;;;;;;8.43;4.78;;;;;;;10.69;100.00;101166.38;5026005;28;20427;-71
2023/08/29 03:45:59;;;;;;;8.10;4.90;;;;;;;10.68;100.00;101167.38;5021407;28;20216;-71
2023/08/29 03:48:24;;;;;;;6.50;4.30;;;;;;;10.66;100.00;101161.13;5025662;28;20046;-71
2023/08/29 03:50:50;;;;;;;9.50;5.15;;;;;;;10.66;100.00;101150.25;5007919;28;20026;-71
2023/08/29 03:53:15;;;;;;;9.55;4.85;;;;;;;10.63;100.00;101140.47;5006012;28;20041;-71
2023/08/29 03:55:41;;;;;;;9.60;5.03;;;;;;;10.62;100.00;101140.56;5017566;28;21056;-71
2023/08/29 03:58:06;;;;;;;7.40;5.47;;;;;;;10.63;100.00;101143.19;5025909;28;20120;-71
2023/08/29 04:00:32;;;;;;;10.98;4.85;;;;;;;10.61;100.00;101142.41;5008489;28;20437;-71
2023/08/29 04:02:59;;;;;;;9.18;4.22;;;;;;;10.62;100.00;101143.28;5006294;28;20497;-71
2023/08/29 04:05:26;;;;;;;8.50;4.68;;;;;;;10.63;100.00;101142.28;5005523;28;20048;-71
2023/08/29 04:07:51;;;;;;;10.77;4.57;;;;;;;10.60;100.00;101134.34;5006147;28;20042;-71
2023/08/29 04:10:17;;;;;;;10.40;4.22;;;;;;;10.60;100.00;101147.97;5007600;28;20053;-71
2023/08/29 04:12:42;;;;;;;8.65;4.22;;;;;;;10.57;100.00;101142.72;5007188;28;20378;-71
2023/08/29 04:15:10;;;;;;;5.57;4.13;;;;;;;10.56;100.00;101141.84;5005317;28;20048;-71
2023/08/29 04:17:36;;;;;;;11.00;4.93;;;;;;;10.53;100.00;101136.59;5006339;28;20701;-71
2023/08/29 04:20:04;;;;;;;8.82;4.53;;;;;;;10.50;100.00;101141.41;5007853;28;20091;-71
2023/08/29 04:22:30;;;;;;;8.75;5.47;;;;;;;10.47;100.00;101135.16;5010969;28;20158;-71
2023/08/29 04:24:55;;;;;;;10.10;5.93;;;;;;;10.45;100.00;101131.69;5010615;28;20041;-71
2023/08/29 04:27:21;;;;;;;9.65;5.45;;;;;;;10.45;100.00;101142.56;5014462;28;20470;-71
2023/08/29 04:29:47;;;;;;;17.58;6.63;;;;;;;10.43;100.00;101132.75;5014243;28;20161;-71
2023/08/29 04:32:12;;;;;;;8.65;5.35;;;;;;;10.40;100.00;101130.28;5025096;28;20018;-71
2023/08/29 04:34:38;;;;;;;8.15;5.40;;;;;;;10.32;100.00;101128.06;5017489;28;20119;-71
2023/08/29 04:37:04;;;;;;;9.07;5.80;;;;;;;10.32;100.00;101130.78;5010420;28;20081;-71
2023/08/29 04:39:29;;;;;;;8.32;5.63;;;;;;;10.33;100.00;101137.06;5009115;28;20038;-71
2023/08/29 04:41:56;;;;;;;11.55;5.93;;;;;;;10.32;100.00;101133.50;5009062;28;20495;-71
2023/08/29 04:44:21;;;;;;;13.00;6.63;;;;;;;10.31;100.00;101128.16;5008994;28;20041;-71
2023/08/29 04:46:47;;;;;;;6.88;4.80;;;;;;;10.27;100.00;101122.06;5022967;28;20436;-71
2023/08/29 04:49:12;;;;;;;10.40;5.40;;;;;;;10.29;100.00;101116.50;5020749;28;20034;-71
2023/08/29 04:51:37;;;;;;;10.10;5.70;;;;;;;10.31;100.00;101115.44;5008978;28;20052;-71
2023/08/29 04:54:03;;;;;;;8.32;5.22;;;;;;;10.33;100.00;101123.47;5008694;28;20125;-71
2023/08/29 04:56:28;;;;;;;7.43;4.63;;;;;;;10.36;100.00;101128.72;5026185;28;20025;-71
2023/08/29 04:58:53;;;;;;;8.40;5.28;;;;;;;10.40;100.00;101122.97;5016458;28;20336;-71
2023/08/29 05:01:19;;;;;;;9.68;5.28;;;;;;;10.43;100.00;101127.31;5010303;28;20625;-71
2023/08/29 05:03:44;;;;;;;10.38;5.95;;;;;;;10.46;100.00;101128.00;5007755;28;20093;-72
2023/08/29 05:06:10;;;;;;;11.40;6.07;;;;;;;10.50;100.00;101130.53;5024756;28;20026;-72
2023/08/29 05:08:36;;;;;;;22.10;6.78;;;;;;;10.54;100.00;101123.88;5024743;28;20037;-72
2023/08/29 05:11:03;;;;;;;11.07;5.82;;;;;;;10.56;100.00;101128.25;5004443;28;20030;-72
2023/08/29 05:13:28;;;;;;;8.57;5.57;;;;;;;10.60;100.00;101118.91;5017610;28;20045;-71
2023/08/29 05:15:54;;;;;;;15.02;6.35;;;;;;;10.65;100.00;101124.03;5029828;28;20133;-72
2023/08/29 05:18:19;;;;;;;9.88;6.32;;;;;;;10.68;100.00;101124.69;5027952;28;20033;-71
2023/08/29 05:20:45;;;;;;;9.75;6.35;;;;;;;10.72;100.00;101117.16;5008259;28;20034;-71
2023/08/29 05:23:10;;;;;;;11.80;6.45;;;;;;;10.80;100.00;101116.66;5011305;28;20042;-71
2023/08/29 05:25:35;;;;;;;15.50;6.63;;;;;;;10.85;100.00;101119.91;5010588;28;20045;-71
2023/08/29 05:28:01;;;;;;;10.25;5.95;;;;;;;10.89;100.00;101113.28;5009516;28;20057;-72
2023/08/29 05:30:26;;;;;;;17.52;6.00;;;;;;;10.96;100.00;101120.06;5008749;28;20045;-72
2023/08/29 05:32:53;;;;;;;10.80;6.28;;;;;;;11.00;100.00;101124.28;5015773;28;20063;-72
2023/08/29 05:35:18;;;;;;;9.20;5.13;;;;;;;11.04;100.00;101117.66;5027425;28;20045;-72
2023/08/29 05:37:44;;;;;;;9.93;5.45;;;;;;;11.09;100.00;101129.09;5027518;28;20037;-72
2023/08/29 05:40:10;;;;;;;8.45;6.00;;;;;;;11.14;100.00;101120.59;5029066;28;20017;-72
2023/08/29 05:42:35;;;;;;;9.70;6.10;;;;;;;11.20;100.00;101118.34;5028827;28;20033;-72
2023/08/29 05:45:01;;;;;;;7.95;5.40;;;;;;;11.27;100.00;101121.47;5011195;28;20100;-72
2023/08/29 05:47:27;;;;;;;8.55;5.80;;;;;;;11.32;100.00;101122.03;5007328;28;20502;-72
2023/08/29 05:49:52;;;;;;;9.05;5.50;;;;;;;11.41;100.00;101125.94;5007348;28;20072;-72
2023/08/29 05:52:18;;;;;;;8.88;5.80;;;;;;;11.47;100.00;101129.13;5010669;28;20433;-72
2023/08/29 05:54:43;;;;;;;9.18;6.38;;;;;;;11.52;100.00;101128.78;5025422;28;20450;-72
2023/08/29 05:57:08;;;;;;;9.50;6.55;;;;;;;11.60;100.00;101123.63;5007352;28;20493;-72
2023/08/29 05:59:34;;;;;;;13.13;6.47;;;;;;;11.70;100.00;101132.91;5011067;28;20528;-72
2023/08/29 06:02:00;;;;;;;9.70;6.53;;;;;;;11.81;100.00;101134.84;5018608;28;20038;-72
2023/08/29 06:04:25;;;;;;;10.23;6.82;;;;;;;11.87;100.00;101136.28;5005577;28;20814;-72
2023/08/29 06:06:51;;;;;;;10.23;7.57;;;;;;;11.95;100.00;101126.56;5009422;28;20032;-72
2023/08/29 06:09:16;;;;;;;9.85;7.00;;;;;;;12.02;100.00;101126.97;5007898;28;20042;-72
2023/08/29 06:11:42;;;;;;;9.95;6.35;;;;;;;12.11;100.00;101129.00;5009157;28;20041;-72
2023/08/29 06:14:07;;;;;;;9.57;6.60;;;;;;;12.20;100.00;101127.47;5008232;28;20061;-72
2023/08/29 06:16:32;;;;;;;15.38;8.30;;;;;;;12.24;100.00;101135.31;5008220;28;20096;-72
2023/08/29 06:18:58;;;;;;;16.50;7.70;;;;;;;12.32;100.00;101128.41;5011237;28;20032;-72
2023/08/29 06:21:23;;;;;;;11.95;8.85;;;;;;;12.37;100.00;101132.53;5028161;28;20040;-72
2023/08/29 06:23:49;;;;;;;12.50;8.75;;;;;;;12.44;100.00;101132.94;5023083;28;20080;-72
2023/08/29 06:26:15;;;;;;;13.40;9.27;;;;;;;12.56;100.00;101133.88;5008518;28;20041;-72
2023/08/29 06:28:41;;;;;;;14.77;10.27;;;;;;;12.62;100.00;101117.88;5022730;28;20532;-72
2023/08/29 06:31:09;;;;;;;16.10;11.43;;;;;;;12.70;100.00;101123.63;5009614;28;20042;-72
2023/08/29 06:33:37;;;;;;;16.00;11.05;;;;;;;12.73;100.00;101131.59;5007481;28;20032;-72
2023/08/29 06:36:03;;;;;;;15.80;9.95;;;;;;;12.81;100.00;101132.84;5023453;28;20534;-72
2023/08/29 06:38:29;;;;;;;13.70;9.60;;;;;;;12.82;100.00;101129.97;5008655;28;20132;-72
2023/08/29 06:40:56;;;;;;;14.25;9.80;;;;;;;12.83;100.00;101128.16;5006990;28;20045;-72
2023/08/29 06:43:22;;;;;;;11.52;8.57;;;;;;;12.88;100.00;101125.94;5008063;28;20041;-72
2023/08/29 06:45:47;;;;;;;16.45;9.60;;;;;;;12.97;100.00;101117.88;5008453;28;20653;-72
2023/08/29 06:48:13;;;;;;;15.80;9.73;;;;;;;13.03;100.00;101113.81;5007669;28;20038;-72
2023/08/29 06:50:38;;;;;;;13.43;8.70;;;;;;;13.11;100.00;101121.41;5007889;28;20445;-72
2023/08/29 06:53:04;;;;;;;14.32;9.18;;;;;;;13.15;100.00;101118.31;5007127;28;20481;-72
2023/08/29 06:55:32;;;;;;;13.23;9.45;;;;;;;13.23;100.00;101118.59;5006722;28;20072;-72
2023/08/29 06:57:58;;;;;;;14.07;9.02;;;;;;;13.35;100.00;101122.22;5008695;28;20979;-72
2023/08/29 07:00:23;;;;;;;14.63;8.87;;;;;;;13.47;100.00;101123.09;5007549;28;20104;-72
2023/08/29 07:02:50;;;;;;;13.55;9.15;;;;;;;13.60;100.00;101121.13;5006543;28;20049;-72
2023/08/29 07:05:16;;;;;;;13.55;8.40;;;;;;;13.73;100.00;101121.00;5021795;28;20132;-72
2023/08/29 07:07:41;;;;;;;14.38;8.82;;;;;;;13.82;100.00;101116.66;5008335;28;20065;-72
2023/08/29 07:10:07;;;;;;;12.48;8.90;;;;;;;13.91;100.00;101122.22;5008114;28;20037;-72
2023/08/29 07:12:33;;;;;;;12.27;8.43;;;;;;;14.04;100.00;101125.69;5015074;28;20027;-72
2023/08/29 07:15:00;;;;;;;12.40;7.88;;;;;;;14.14;100.00;101131.28;5027672;28;20038;-72
2023/08/29 07:17:26;;;;;;;11.57;8.00;;;;;;;14.23;100.00;101133.25;5024123;28;20099;-72
2023/08/29 07:19:51;;;;;;;12.40;7.68;;;;;;;14.32;100.00;101125.28;5015850;28;20030;-72
2023/08/29 07:22:17;;;;;;;11.95;8.63;;;;;;;14.42;100.00;101132.56;5008518;28;20473;-72
2023/08/29 07:24:43;;;;;;;13.57;9.35;;;;;;;14.51;100.00;101128.22;5007646;28;20125;-71
2023/08/29 07:27:09;;;;;;;14.35;9.98;;;;;;;14.62;100.00;101127.31;5006388;28;20080;-72
2023/08/29 07:29:34;;;;;;;14.25;9.65;;;;;;;14.74;100.00;101131.75;5008012;28;20042;-72
2023/08/29 07:31:59;;;;;;;14.93;10.05;;;;;;;14.79;100.00;101138.56;5021583;28;20678;-71
2023/08/29 07:34:25;;;;;;;13.70;10.15;;;;;;;14.84;100.00;101137.31;5016882;28;20458;-72
2023/08/29 07:36:50;;;;;;;14.23;9.93;;;;;;;14.92;100.00;101135.66;5007386;28;20057;-71
2023/08/29 07:39:18;;;;;;;13.63;9.70;;;;;;;15.10;100.00;101141.38;5007933;28;20045;-71
2023/08/29 07:41:47;;;;;;;15.98;10.75;;;;;;;15.26;100.00;101139.06;5007757;28;20044;-72
2023/08/29 07:44:13;;;;;;;16.67;12.45;;;;;;;15.40;100.00;101137.00;5007738;28;20045;-72
2023/08/29 07:46:38;;;;;;;16.98;12.85;;;;;;;15.49;100.00;101144.41;5006256;28;20050;-72
2023/08/29 07:49:10;;;;;;;17.17;13.10;;;;;;;15.59;100.00;101141.72;5006533;28;20072;-72
2023/08/29 07:51:35;;;;;;;15.52;12.57;;;;;;;15.74;100.00;101146.72;5007832;28;20117;-72
2023/08/29 07:54:01;;;;;;;18.25;14.18;;;;;;;15.86;100.00;101141.16;5009051;28;20048;-72
2023/08/29 07:56:26;;;;;;;15.95;14.25;;;;;;;15.92;100.00;101137.84;5026941;28;20429;-72
2023/08/29 07:58:52;;;;;;;14.40;11.73;;;;;;;15.98;100.00;101146.38;5009556;28;20050;-72
2023/08/29 08:01:17;;;;;;;18.42;13.52;;;;;;;16.06;100.00;101140.22;5011800;28;20030;-72
2023/08/29 08:03:43;;;;;;;15.18;12.68;;;;;;;16.14;99.69;101129.41;5011651;28;20033;-72
2023/08/29 08:06:08;;;;;;;13.80;11.55;;;;;;;16.23;99.30;101130.44;5024607;28;20040;-71
2023/08/29 08:08:34;;;;;;;15.65;12.20;;;;;;;16.32;100.00;101130.47;5011417;28;20164;-72
2023/08/29 08:10:59;;;;;;;17.55;12.18;;;;;;;16.44;100.00;101133.06;5009789;28;20026;-72
2023/08/29 08:13:24;;;;;;;13.68;10.68;;;;;;;16.56;99.45;101137.44;5011120;28;20046;-72
2023/08/29 08:15:50;;;;;;;9.63;8.15;;;;;;;16.62;98.29;101131.38;5011270;28;20488;-71
2023/08/29 08:18:15;;;;;;;8.43;7.43;;;;;;;16.70;99.66;101137.03;5008866;28;20065;-72
2023/08/29 08:20:42;;;;;;;10.13;8.82;;;;;;;16.76;98.75;101130.97;5009221;28;20462;-72
2023/08/29 08:23:07;;;;;;;8.70;7.68;;;;;;;16.85;98.44;101137.47;5009834;28;20068;-71
2023/08/29 08:25:33;;;;;;;13.98;8.32;;;;;;;16.89;97.89;101130.69;5010994;28;20397;-72
2023/08/29 08:27:59;;;;;;;10.38;8.32;;;;;;;16.99;98.30;101141.69;5021009;28;20029;-72
2023/08/29 08:30:24;;;;;;;12.10;8.25;;;;;;;17.10;98.82;101136.00;5028192;28;20044;-72
2023/08/29 08:32:49;;;;;;;10.50;7.60;;;;;;;17.18;98.46;101136.16;5010412;28;20037;-72
2023/08/29 08:35:15;;;;;;;8.55;6.70;;;;;;;17.21;97.67;101124.88;5010502;28;20103;-72
2023/08/29 08:37:40;;;;;;;9.70;6.72;;;;;;;17.32;96.20;101145.84;5010872;28;20041;-72
2023/08/29 08:40:10;;;;;;;9.77;6.65;;;;;;;17.37;96.03;101145.38;5010775;28;20042;-71
2023/08/29 08:42:37;;;;;;;9.30;6.50;;;;;;;17.46;95.86;101145.38;5010579;28;20038;-72
2023/08/29 08:45:05;;;;;;;7.32;6.00;;;;;;;17.63;95.38;101151.13;5010627;28;20484;-72
2023/08/29 08:47:33;;;;;;;6.68;5.22;;;;;;;17.82;93.69;101143.69;5009446;28;20056;-72
2023/08/29 08:49:58;;;;;;;7.40;4.95;;;;;;;18.00;92.80;101140.13;5008867;28;20567;-72
2023/08/29 08:52:24;;;;;;;8.45;5.22;;;;;;;18.23;91.90;101135.06;5010402;28;20109;-72
2023/08/29 08:54:49;;;;;;;7.18;4.78;;;;;;;18.44;89.75;101137.56;5011091;28;20054;-72
2023/08/29 08:57:15;;;;;;;7.60;5.00;;;;;;;18.68;93.25;101139.72;5010016;28;20041;-72
2023/08/29 08:59:41;;;;;;;6.80;4.38;;;;;;;18.81;89.30;101134.72;5010096;28;20133;-72
2023/08/29 09:02:13;;;;;;;6.72;4.22;;;;;;;19.04;89.42;101135.09;5039368;28;20434;-72
2023/08/29 09:04:38;;;;;;;6.88;4.32;;;;;;;19.32;85.81;101133.09;5019384;28;20092;-72
2023/08/29 09:07:04;;;;;;;5.25;3.90;;;;;;;19.36;82.74;101129.00;5008165;28;20037;-72
2023/08/29 09:09:29;;;;;;;6.05;4.15;;;;;;;19.40;85.53;101130.41;5011302;28;20168;-71
2023/08/29 09:11:56;;;;;;;4.50;3.30;;;;;;;19.35;84.47;101135.50;5021262;28;20038;-72
2023/08/29 09:14:23;;;;;;;3.40;2.95;;;;;;;19.33;82.19;101132.91;5008317;28;20061;-73
2023/08/29 09:16:59;;;;;;;5.47;3.15;;;;;;;19.26;83.39;101133.75;5009593;28;20084;-72
2023/08/29 09:19:29;;;;;;;6.75;4.03;;;;;;;19.18;84.06;101136.44;5007451;28;20042;-72
2023/08/29 09:21:54;;;;;;;5.65;3.92;;;;;;;19.11;82.62;101136.19;5009770;28;20583;-72
2023/08/29 09:24:32;;;;;;;6.00;3.80;;;;;;;19.13;83.93;101142.44;5010367;28;20139;-72
2023/08/29 09:26:58;;;;;;;4.00;3.00;;;;;;;19.16;82.05;101146.75;5009874;28;20046;-72
2023/08/29 09:29:24;;;;;;;8.40;3.15;;;;;;;19.41;83.84;101142.31;5013618;28;20497;-72
2023/08/29 09:31:50;;;;;;;4.68;2.20;;;;;;;19.69;77.15;101143.03;5009446;28;20557;-72
2023/08/29 09:34:31;;;;;;;4.18;2.60;;;;;;;20.00;82.13;101140.59;5008649;28;20033;-71
2023/08/29 09:36:58;;;;;;;3.70;2.88;;;;;;;20.19;79.18;101145.00;5008286;28;20041;-72
2023/08/29 09:39:24;;;;;;;3.47;2.17;;;;;;;20.44;78.88;101141.31;5009408;28;20494;-72
2023/08/29 09:42:05;;;;;;;4.43;3.10;;;;;;;20.52;79.52;101138.59;5009807;28;20064;-72
2023/08/29 09:44:38;;;;;;;5.67;2.77;;;;;;;20.49;77.59;101138.94;5007774;28;20053;-72
2023/08/29 09:47:05;;;;;;;9.40;2.20;;;;;;;20.50;78.82;101137.88;5007315;28;20037;-72
2023/08/29 09:49:50;;;;;;;4.35;2.05;;;;;;;20.56;80.09;101134.47;5008265;28;20033;-72
2023/08/29 09:52:17;;;;;;;6.80;3.33;;;;;;;20.51;76.33;101123.03;5008901;28;20457;-72
2023/08/29 09:54:50;;;;;;;6.53;3.28;;;;;;;20.63;77.11;101129.97;5009210;28;20052;-72
2023/08/29 09:57:22;;;;;;;5.18;2.95;;;;;;;20.72;76.80;101122.56;5008822;28;20582;-72
2023/08/29 09:59:51;;;;;;;2.88;2.00;;;;;;;20.71;75.96;101119.97;5009668;28;20057;-72
2023/08/29 10:02:20;;;;;;;3.80;2.00;;;;;;;20.79;74.46;101115.31;5006864;28;20069;-72
2023/08/29 10:04:50;;;;;;;5.95;1.77;;;;;;;20.75;72.98;101125.00;5008890;28;20042;-71
2023/08/29 10:07:23;;;;;;;4.20;1.50;;;;;;;20.87;74.79;101109.78;5008924;28;20071;-72
2023/08/29 10:09:51;;;;;;;4.30;2.00;;;;;;;20.81;71.73;101112.38;5024704;28;20033;-71
2023/08/29 10:12:17;;;;;;;4.38;2.35;;;;;;;20.72;71.32;101114.28;5008849;28;20033;-71
2023/08/29 10:14:43;;;;;;;3.17;1.90;;;;;;;20.84;74.44;101112.03;5008685;28;20049;-72
2023/08/29 10:17:10;;;;;;;3.00;1.90;;;;;;;20.99;73.01;101117.75;5007320;28;20048;-71
2023/08/29 10:19:36;;;;;;;4.28;1.95;;;;;;;21.08;73.19;101119.50;5007732;28;20041;-71
2023/08/29 10:22:04;;;;;;;3.03;1.95;;;;;;;21.02;71.68;101111.88;5008721;28;20103;-72
2023/08/29 10:24:31;;;;;;;4.35;1.67;;;;;;;20.93;72.73;101104.59;5007284;28;20080;-71
2023/08/29 10:26:57;;;;;;;4.70;1.95;;;;;;;21.01;74.65;101107.38;5008304;28;20473;-71
2023/08/29 10:29:23;;;;;;;4.93;1.77;;;;;;;20.99;72.04;101109.47;5007104;28;20038;-72
2023/08/29 10:31:48;;;;;;;5.40;1.83;;;;;;;21.04;73.91;101107.91;5007089;28;20549;-72
2023/08/29 10:34:14;;;;;;;3.05;1.60;;;;;;;21.12;72.23;101105.13;5012666;28;20078;-71
2023/08/29 10:36:39;;;;;;;4.88;1.63;;;;;;;21.21;72.41;101105.13;5026931;28;20378;-71
2023/08/29 10:39:09;;;;;;;4.75;1.77;;;;;;;21.21;68.87;101102.34;5028204;28;20052;-71
2023/08/29 10:41:46;;;;;;;3.17;1.83;;;;;;;21.18;71.55;101094.41;5028348;28;20042;-70
2023/08/29 10:44:40;;;;;;;3.00;1.40;;;;;;;21.19;71.98;101102.53;5010984;28;20077;-72
2023/08/29 10:47:31;;;;;;;4.32;1.77;;;;;;;21.19;71.35;101101.66;5006930;28;20434;-70
2023/08/29 10:50:02;;;;;;;4.45;2.63;;;;;;;21.15;70.64;101095.59;5008149;28;20046;-72
2023/08/29 10:52:40;;;;;;;2.83;2.00;;;;;;;21.30;70.50;101095.75;5008343;28;20084;-71
2023/08/29 10:55:19;;;;;;;3.28;2.47;;;;;;;21.30;71.81;101099.38;5006978;28;20490;-72
2023/08/29 10:57:44;;;;;;;4.03;2.63;;;;;;;21.33;68.85;101095.47;5022829;28;20088;-71
2023/08/29 11:00:17;;;;;;;3.95;2.55;;;;;;;21.38;70.51;101079.19;5027523;28;20454;-71
2023/08/29 11:02:43;;;;;;;4.82;2.55;;;;;;;21.54;72.19;101081.94;5007622;28;20033;-71
2023/08/29 11:05:08;;;;;;;4.35;2.60;;;;;;;21.56;67.64;101085.38;5007831;28;20030;-71
2023/08/29 11:07:34;;;;;;;3.90;2.55;;;;;;;21.74;69.56;101089.84;5007995;28;20033;-71
2023/08/29 11:10:20;;;;;;;3.38;2.67;;;;;;;21.90;71.01;101090.63;5008213;28;20033;-71
2023/08/29 11:13:06;;;;;;;4.65;2.70;;;;;;;22.03;69.06;101086.41;5007447;28;20084;-71
2023/08/29 11:15:49;;;;;;;6.53;2.75;;;;;;;22.19;70.40;101079.97;5007290;28;20371;-71